METAR Data
IDs: Format: Raw Decoded Include TAF

Data at: 1339 UTC 14 Dec 2019

PABE 141253Z 02006KT 10SM OVC047 M06/M07 A2935 RMK AO2 SLP940 T10561067
PABE 141153Z 02007KT 10SM OVC048 M07/M08 A2936 RMK AO2 SLP946 70003 T10671078 11022 21067 58014
PABE 141130Z 02008KT 10SM SCT002 OVC048 M06/M07 A2937 RMK AO2 T10611072
PABE 141053Z 04009KT 10SM BKN002 OVC047 M06/M06 A2938 RMK AO2 SLP950 T10561061
PABE 140953Z 03006KT 10SM OVC003 M05/M06 A2940 RMK AO2 SLP958 T10501056
PABE 140853Z 03006KT 10SM OVC003 M04/M06 A2940 RMK AO2 SLP959 T10441056 410171078 57004
PABE 140753Z 04005KT 10SM BKN002 OVC038 M03/M04 A2941 RMK AO2 SLP960 T10331039
PABE 140745Z 03007KT 10SM SCT002 BKN013 OVC040 M03/M04 A2941 RMK AO2 T10331039
PABE 140738Z 04006KT 10SM FEW002 SCT013 OVC040 M03/M04 A2941 RMK AO2 T10331039
PABE 140653Z 05005KT 10SM OVC043 M02/M03 A2941 RMK AO2 SLP962 T10221028
PABE 140553Z 06005KT 4SM BR SCT004 OVC042 M02/M02 A2941 RMK AO2 SNE0454 SLP963 P0001 60003 I1001 I6001 T10221022 11017 21028 58002
PABE 140544Z 06005KT 4SM BR BKN004 OVC035 M02/M02 A2942 RMK AO2 SNE0454 P0001 I1001 T10171022
PABE 140535Z 07005KT 4SM BR SCT004 OVC035 M02/M02 A2942 RMK AO2 SNE0454 P0001 I1001 T10171022
PABE 140522Z 07004KT 3SM BR FEW002 OVC028 M02/M02 A2942 RMK AO2 SNE0454 P0001 I1001 T10171022
PABE 140512Z 07005KT 2 1/2SM BR SCT002 OVC026 M02/M02 A2942 RMK AO2 SNE0454 P0000 I1000 T10171022
PABE 140500Z 08005KT 2SM BR BKN002 OVC018 M02/M02 A2942 RMK AO2 SNE0454 P0000 T10171022
PABE 140453Z 08005KT 3SM -SN BR OVC002 M02/M02 A2942 RMK AO2 SNE0358B31 SLP966 P0000 I1000 T10171022
PABE 140353Z 07005KT 3SM -SN BR BKN002 BKN009 OVC015 M02/M03 A2942 RMK AO2 SNB20 SLP964 P0001 T10221028
PABE 140253Z 07003KT 3SM BR OVC002 M02/M03 A2942 RMK AO2 SNE46 SLP965 P0000 60001 T10221028 51004
PABE 140153Z 13003KT 3SM -SN BR OVC002 M02/M03 A2942 RMK AO2 SNB04 SLP963 P0000 T10221028
PABE 140148Z 13004KT 3SM -SN BR OVC002 M02/M03 A2941 RMK AO2 SNB04 P0000
PABE 140053Z 16004KT 1SM R19R/P6000FT BR OVC002 M02/M03 A2941 RMK AO2 SNB2359E45 SLP960 P0001 T10221028
PABE 140048Z 19005KT 1SM R19R/P6000FT BR OVC002 M02/M03 A2941 RMK AO2 SNB2359E45 P0001
PABE 132353Z 20006KT 1/2SM R19R/4500V6000FT FZFG OVC002 M03/M03 A2940 RMK AO2 SLP958 60000 I1000 I6000 T10281028 11028 21072 51009
PABE 132325Z 17004KT 1/2SM R19R/5500VP6000FT FZFG OVC002 M03/M03 A2940 RMK AO2 T10281033
PABE 132309Z 16004KT 1 1/2SM BR OVC003 M03/M04 A2939 RMK AO2 T10331039
PABE 132253Z 13003KT 2SM BR OVC004 M03/M04 A2939 RMK AO2 SNB31E48 SLP955 P0000 T10331039
PABE 132218Z 16004KT 10SM OVC004 M04/M04 A2938 RMK AO2 T10391044
PABE 132200Z 16004KT 10SM BKN008 M04/M05 A2938 RMK AO2 T10391050
PABE 132153Z 13004KT 10SM SCT006 BKN010 M04/M05 A2937 RMK AO2 SLP949 T10441050
PABE 132150Z 14004KT 10SM SCT006 BKN010 M04/M06 A2937 RMK AO2
PABE 132053Z 13005KT 10SM OVC008 M06/M07 A2936 RMK AO2 SLP944 T10611072 53021
PABE 132033Z 09005KT 10SM BKN008 BKN021 OVC029 M06/M07 A2934 RMK AO2 T10611072
PABE 131953Z 08004KT 8SM BKN013 OVC021 M06/M08 A2933 RMK AO2 SLP933 T10611078
PABE 131853Z 12004KT 10SM BKN013 BKN021 OVC036 M07/M08 A2932 RMK AO2 SLP931 T10671083
PABE 131753Z 08004KT 10SM BKN029 BKN043 OVC050 M07/M09 A2930 RMK AO2 SLP923 60000 T10721089 11072 21078 53012
PABE 131737Z 11005KT 10SM BKN029 BKN036 OVC043 M07/M09 A2930 RMK AO2 T10721089
PABE 131553Z AUTO 04006KT 10SM BKN065 BKN100 M08/M09 A2927 RMK AO2 SLP913 T10781094 TSNO
PABE 131453Z AUTO 03005KT 10SM BKN075 OVC090 M07/M09 A2926 RMK AO2 UPE1358 SLP911 P0000 60000 T10721089 51004 TSNO
PABE 131353Z COR 06006KT 10SM BKN055 OVC065 M07/M09 A2926 RMK AO2 UPB40 SLP910 P0000 T10721094
PABE 131253Z 04008KT 10SM OVC070 M07/M09 A2926 RMK AO2 SLP910 T10721094
PABE 131153Z 06005KT 10SM OVC060 M07/M09 A2925 RMK AO2 UPB17E18 SLP908 P0000 60000 I6000 T10721094 11067 21072 53002
PABE 131053Z 05009KT 10SM OVC070 M07/M09 A2925 RMK AO2 UPE0958 SLP906 P0000 I1000 T10671089
PABE 130953Z 02011KT 10SM UP OVC055 M07/M09 A2925 RMK AO2 UPB51 SLP906 P0000 T10671089
PABE 130853Z 02009KT 10SM OVC050 M07/M08 A2925 RMK AO2 SLP906 T10671083 410281067 53006
PABE 130753Z 02010KT 10SM BKN070 OVC085 M07/M08 A2924 RMK AO2 SLP902 T10671083
PABE 130653Z 02010KT 10SM BKN110 M07/M08 A2923 RMK AO2 SLP901 T10671083
PABE 130553Z 02010KT 10SM BKN110 M07/M08 A2923 RMK AO2 SLP900 T10671083 11044 21067 54000
PABE 130453Z 03010KT 10SM BKN085 M07/M08 A2923 RMK AO2 SLP899 T10671083
PABE 130353Z 02012KT 10SM FEW085 M07/M08 A2923 RMK AO2 SLP901 T10671083
PABE 130253Z 02013KT 10SM CLR M07/M08 A2923 RMK AO2 SLP900 T10671083 55004
PABE 130153Z 02012KT 10SM SCT055 M07/M08 A2923 RMK AO2 SLP899 T10671083